Time;durP1;ratioP1;P1;durP2;ratioP2;P2;SDS_P1;SDS_P2;PMS_P1;PMS_P2;Temp;Humidity;BMP_temperature;BMP_pressure;BME280_temperature;BME280_humidity;BME280_pressure;Samples;Min_cycle;Max_cycle;Signal;HPM_P1;HPM_P2
2023/04/10 00:01:43;;;;;;;29.63;20.50;;;6.20;99.90;;;;;;5042045;28;20183;-69
2023/04/10 00:04:09;;;;;;;33.00;22.17;;;6.10;99.90;;;;;;5042542;28;20243;-69
2023/04/10 00:06:34;;;;;;;26.07;19.97;;;6.10;99.90;;;;;;5040467;28;20626;-68
2023/04/10 00:09:00;;;;;;;30.87;20.43;;;6.10;99.90;;;;;;5044437;28;20178;-68
2023/04/10 00:11:26;;;;;;;30.50;20.70;;;6.10;99.90;;;;;;5039619;28;20175;-68
2023/04/10 00:13:52;;;;;;;30.23;20.20;;;6.00;99.90;;;;;;5047202;28;20241;-69
2023/04/10 00:16:18;;;;;;;35.50;19.60;;;6.00;99.90;;;;;;5045379;28;20441;-68
2023/04/10 00:18:44;;;;;;;32.47;20.60;;;5.90;99.90;;;;;;5045810;28;20416;-69
2023/04/10 00:21:10;;;;;;;28.30;19.43;;;5.90;99.90;;;;;;5046334;28;20455;-69
2023/04/10 00:23:36;;;;;;;26.30;19.07;;;5.80;99.90;;;;;;5045567;28;20590;-69
2023/04/10 00:26:02;;;;;;;39.77;20.57;;;5.80;99.90;;;;;;5045948;28;20437;-69
2023/04/10 00:28:28;;;;;;;27.47;19.23;;;5.80;99.90;;;;;;5043710;28;20462;-69
2023/04/10 00:30:53;;;;;;;28.27;18.97;;;5.80;99.90;;;;;;5046601;28;20922;-69
2023/04/10 00:33:19;;;;;;;28.30;16.93;;;5.70;99.90;;;;;;5045606;28;20661;-72
2023/04/10 00:35:45;;;;;;;30.30;18.57;;;5.70;99.90;;;;;;5045976;28;20545;-69
2023/04/10 00:38:10;;;;;;;26.37;18.73;;;5.60;99.90;;;;;;5045949;28;20568;-70
2023/04/10 00:40:36;;;;;;;32.90;20.23;;;5.60;99.90;;;;;;5045189;28;20195;-69
2023/04/10 00:43:02;;;;;;;26.37;16.50;;;5.60;99.90;;;;;;5046184;28;20174;-69
2023/04/10 00:45:27;;;;;;;29.60;18.63;;;5.60;99.90;;;;;;5043596;28;20294;-69
2023/04/10 00:47:54;;;;;;;28.60;17.77;;;5.70;99.90;;;;;;5045667;28;20202;-68
2023/04/10 00:50:20;;;;;;;29.07;19.30;;;5.60;99.90;;;;;;5044849;28;20175;-69
2023/04/10 00:52:47;;;;;;;27.50;18.00;;;5.70;99.90;;;;;;5045509;28;20409;-69
2023/04/10 00:55:14;;;;;;;27.47;18.17;;;5.70;99.90;;;;;;5045552;28;20920;-70
2023/04/10 00:57:45;;;;;;;23.43;15.50;;;5.70;99.90;;;;;;5045301;28;20455;-68
2023/04/10 01:00:14;;;;;;;23.60;15.97;;;5.60;99.90;;;;;;5045869;28;20413;-70
2023/04/10 01:02:40;;;;;;;25.67;16.20;;;5.70;99.90;;;;;;5043998;28;20422;-69
2023/04/10 01:05:08;;;;;;;22.77;14.37;;;5.60;99.90;;;;;;5045128;28;20464;-70
2023/04/10 01:08:08;;;;;;;24.40;16.33;;;5.60;99.90;;;;;;5044270;28;20955;-70
2023/04/10 01:11:06;;;;;;;20.80;13.63;;;5.60;99.90;;;;;;5044064;28;20436;-69
2023/04/10 01:13:46;;;;;;;22.97;14.50;;;5.60;99.90;;;;;;5044374;28;20597;-69
2023/04/10 01:16:22;;;;;;;17.40;13.93;;;5.50;99.90;;;;;;5045153;28;20432;-69
2023/04/10 01:18:55;;;;;;;22.73;14.90;;;5.50;99.90;;;;;;5033352;28;20695;-69
2023/04/10 01:21:22;;;;;;;17.83;12.80;;;5.50;99.90;;;;;;5045849;28;20459;-68
2023/04/10 01:24:03;;;;;;;25.13;14.67;;;5.40;99.90;;;;;;5046198;28;20428;-69
2023/04/10 01:27:04;;;;;;;22.60;14.83;;;5.40;99.90;;;;;;5044642;28;20440;-69
2023/04/10 01:29:32;;;;;;;20.60;15.33;;;5.40;99.90;;;;;;5047905;28;20412;-68
2023/04/10 01:32:06;;;;;;;20.40;15.27;;;5.40;99.90;;;;;;5041609;28;20411;-69
2023/04/10 01:34:37;;;;;;;21.37;15.20;;;5.30;99.90;;;;;;5048334;28;20436;-70
2023/04/10 01:37:07;;;;;;;19.60;12.90;;;5.30;99.90;;;;;;5041832;28;20419;-69
2023/04/10 01:39:38;;;;;;;22.27;14.40;;;5.30;99.90;;;;;;5049210;28;20475;-69
2023/04/10 01:42:05;;;;;;;21.47;13.80;;;5.30;99.90;;;;;;5041434;28;20477;-70
2023/04/10 01:44:33;;;;;;;21.23;15.37;;;5.30;99.90;;;;;;5042209;28;20785;-69
2023/04/10 01:47:00;;;;;;;19.27;12.83;;;5.30;99.90;;;;;;5045852;28;20454;-70
2023/04/10 01:49:27;;;;;;;20.87;13.03;;;5.30;99.90;;;;;;5041897;28;20440;-70
2023/04/10 01:51:57;;;;;;;21.00;14.90;;;5.30;99.90;;;;;;5047612;28;20452;-70
2023/04/10 01:54:24;;;;;;;18.37;12.37;;;5.20;99.90;;;;;;5037623;28;20438;-69
2023/04/10 01:56:50;;;;;;;18.87;13.87;;;5.20;99.90;;;;;;5033681;28;20943;-69
2023/04/10 01:59:16;;;;;;;20.60;14.97;;;5.20;99.90;;;;;;5041008;28;20458;-69
2023/04/10 02:01:42;;;;;;;20.17;14.77;;;5.20;99.90;;;;;;5043715;28;20229;-69
2023/04/10 02:04:07;;;;;;;21.47;13.90;;;5.20;99.90;;;;;;5044374;28;20406;-69
2023/04/10 02:07:09;;;;;;;25.77;13.00;;;5.20;99.90;;;;;;5041954;28;20231;-70
2023/04/10 02:09:53;;;;;;;19.73;12.60;;;5.10;99.90;;;;;;5031127;28;20544;-69
2023/04/10 02:12:27;;;;;;;21.53;13.07;;;5.10;99.90;;;;;;5044347;28;20967;-70
2023/04/10 02:14:57;;;;;;;22.00;14.97;;;5.10;99.90;;;;;;5043663;28;20418;-69
2023/04/10 02:17:27;;;;;;;19.30;12.70;;;5.20;99.90;;;;;;5047517;28;20919;-69
2023/04/10 02:19:54;;;;;;;14.97;11.20;;;5.10;99.90;;;;;;5059224;22;20513;-69
2023/04/10 02:22:21;;;;;;;19.20;12.60;;;5.10;99.90;;;;;;5051509;28;20481;-69
2023/04/10 02:24:48;;;;;;;21.17;12.90;;;5.10;99.90;;;;;;5063985;28;20402;-69
2023/04/10 02:27:15;;;;;;;19.53;12.93;;;5.10;99.90;;;;;;5052676;28;21020;-70
2023/04/10 02:29:40;;;;;;;21.03;13.50;;;5.00;99.90;;;;;;5068848;28;20422;-70
2023/04/10 02:32:06;;;;;;;26.97;13.20;;;5.10;99.90;;;;;;5083486;28;20809;-69
2023/04/10 02:34:31;;;;;;;17.97;12.57;;;5.00;99.90;;;;;;5082776;28;20209;-69
2023/04/10 02:36:57;;;;;;;18.07;13.30;;;5.00;99.90;;;;;;5088755;28;20174;-70
2023/04/10 02:39:23;;;;;;;17.20;13.47;;;5.00;99.90;;;;;;5078292;28;20225;-70
2023/04/10 02:41:49;;;;;;;17.20;13.03;;;5.00;99.90;;;;;;5081867;28;20174;-70
2023/04/10 02:44:15;;;;;;;19.67;13.60;;;5.00;99.90;;;;;;5086725;28;20699;-70
2023/04/10 02:46:40;;;;;;;19.50;12.13;;;5.00;99.90;;;;;;5088744;28;20186;-70
2023/04/10 02:49:06;;;;;;;18.73;12.80;;;4.90;99.90;;;;;;5085831;28;20170;-70
2023/04/10 02:51:36;;;;;;;19.00;13.70;;;4.90;99.90;;;;;;5086982;28;20177;-70
2023/04/10 02:54:01;;;;;;;22.03;13.00;;;4.90;99.90;;;;;;5082057;28;20177;-70
2023/04/10 02:56:27;;;;;;;21.57;13.63;;;4.90;99.90;;;;;;5086433;28;20784;-69
2023/04/10 02:58:52;;;;;;;18.87;13.40;;;4.90;99.90;;;;;;5083420;28;20169;-69
2023/04/10 03:01:18;;;;;;;17.80;13.50;;;4.90;99.90;;;;;;5086023;28;20174;-70
2023/04/10 03:03:44;;;;;;;22.60;13.67;;;5.00;99.90;;;;;;5079300;28;20174;-70
2023/04/10 03:06:09;;;;;;;26.60;15.17;;;5.00;99.90;;;;;;5075138;28;20165;-69
2023/04/10 03:08:35;;;;;;;24.20;14.20;;;5.00;99.90;;;;;;5081939;28;20204;-71
2023/04/10 03:11:01;;;;;;;21.47;14.57;;;5.00;99.90;;;;;;5091108;28;20519;-70
2023/04/10 03:13:26;;;;;;;16.90;13.03;;;5.00;99.90;;;;;;5081839;28;20265;-69
2023/04/10 03:15:52;;;;;;;17.57;14.33;;;5.10;99.90;;;;;;5082606;28;20261;-70
2023/04/10 03:18:17;;;;;;;24.73;14.23;;;5.00;99.90;;;;;;5085519;28;20173;-70
2023/04/10 03:20:43;;;;;;;20.80;13.03;;;4.90;99.90;;;;;;5084601;28;20704;-69
2023/04/10 03:23:09;;;;;;;22.93;13.40;;;4.90;99.90;;;;;;5079056;28;20573;-70
2023/04/10 03:25:35;;;;;;;20.87;13.67;;;4.90;99.90;;;;;;5087065;28;20188;-70
2023/04/10 03:28:01;;;;;;;27.70;14.67;;;4.90;99.90;;;;;;5088997;28;20542;-70
2023/04/10 03:30:27;;;;;;;23.70;15.33;;;4.90;99.90;;;;;;5085205;28;20443;-70
2023/04/10 03:32:52;;;;;;;17.80;14.30;;;4.80;99.90;;;;;;5087591;28;20205;-70
2023/04/10 03:35:18;;;;;;;29.87;14.67;;;4.90;99.90;;;;;;5090986;28;20635;-70
2023/04/10 03:37:43;;;;;;;21.63;13.20;;;4.90;99.90;;;;;;5086341;28;20204;-70
2023/04/10 03:40:11;;;;;;;22.07;15.03;;;4.90;99.90;;;;;;5089528;28;20610;-70
2023/04/10 03:42:37;;;;;;;20.47;15.23;;;4.90;99.90;;;;;;5080487;28;20173;-70
2023/04/10 03:45:03;;;;;;;26.30;15.00;;;4.90;99.90;;;;;;5090902;28;20419;-70
2023/04/10 03:47:33;;;;;;;24.07;14.93;;;4.90;99.90;;;;;;5081032;28;20727;-71
2023/04/10 03:49:59;;;;;;;19.87;14.13;;;4.90;99.90;;;;;;5076835;28;20432;-70
2023/04/10 03:52:26;;;;;;;23.17;14.37;;;4.80;99.90;;;;;;5087351;28;20412;-69
2023/04/10 03:54:52;;;;;;;25.63;14.40;;;4.80;99.90;;;;;;5085714;28;20411;-70
2023/04/10 03:57:19;;;;;;;24.20;14.90;;;4.70;99.90;;;;;;5093382;28;20408;-70
2023/04/10 03:59:46;;;;;;;22.87;13.73;;;4.80;99.90;;;;;;5081965;28;20439;-70
2023/04/10 04:02:11;;;;;;;24.23;15.27;;;4.80;99.90;;;;;;5084079;28;20411;-70
2023/04/10 04:04:37;;;;;;;25.23;14.77;;;4.80;99.90;;;;;;5084499;28;20515;-70
2023/04/10 04:07:03;;;;;;;23.20;14.67;;;4.80;99.90;;;;;;5087714;28;20639;-70
2023/04/10 04:09:28;;;;;;;20.90;13.60;;;4.90;99.90;;;;;;5090631;28;20480;-70
2023/04/10 04:11:55;;;;;;;24.60;15.63;;;4.80;99.90;;;;;;5087281;28;20250;-70
2023/04/10 04:14:22;;;;;;;24.57;14.33;;;4.80;99.90;;;;;;5090565;28;20610;-71
2023/04/10 04:16:48;;;;;;;18.70;14.07;;;4.80;99.90;;;;;;5074069;28;20412;-70
2023/04/10 04:19:14;;;;;;;19.87;14.47;;;4.80;99.90;;;;;;5089348;28;20508;-70
2023/04/10 04:21:40;;;;;;;32.17;15.73;;;4.80;99.90;;;;;;5083237;28;20416;-70
2023/04/10 04:24:05;;;;;;;22.97;16.10;;;4.80;99.90;;;;;;5077022;28;20178;-69
2023/04/10 04:26:31;;;;;;;23.33;14.77;;;4.80;99.90;;;;;;5085520;28;20178;-70
2023/04/10 04:28:57;;;;;;;24.90;13.73;;;4.80;99.90;;;;;;5081689;28;20174;-69
2023/04/10 04:31:23;;;;;;;20.20;14.70;;;4.90;99.90;;;;;;5084725;28;20274;-69
2023/04/10 04:33:49;;;;;;;18.67;13.13;;;4.90;99.90;;;;;;5077702;28;20166;-70
2023/04/10 04:36:15;;;;;;;20.17;15.50;;;4.90;99.90;;;;;;5078730;28;20409;-70
2023/04/10 04:38:41;;;;;;;22.43;14.70;;;5.00;99.90;;;;;;5082085;28;20481;-70
2023/04/10 04:41:07;;;;;;;22.97;15.20;;;5.00;99.90;;;;;;5085039;28;20436;-70
2023/04/10 04:43:32;;;;;;;28.60;16.50;;;5.00;99.90;;;;;;5082982;28;20503;-70
2023/04/10 04:45:58;;;;;;;24.10;16.10;;;5.00;99.90;;;;;;5088485;28;20179;-70
2023/04/10 04:48:24;;;;;;;22.47;14.97;;;5.00;99.90;;;;;;5081921;28;20255;-69
2023/04/10 04:50:49;;;;;;;18.70;16.43;;;5.10;99.90;;;;;;5077249;28;20255;-68
2023/04/10 04:53:15;;;;;;;28.43;15.97;;;5.10;99.90;;;;;;5089795;28;20260;-70
2023/04/10 04:55:41;;;;;;;25.20;18.17;;;5.10;99.90;;;;;;5085399;28;20487;-70
2023/04/10 04:58:06;;;;;;;27.77;16.97;;;5.20;99.90;;;;;;5084754;28;20228;-70
2023/04/10 05:00:32;;;;;;;25.53;16.33;;;5.20;99.90;;;;;;5082717;28;20714;-70
2023/04/10 05:02:57;;;;;;;29.43;17.70;;;5.30;99.90;;;;;;5087977;28;20190;-70
2023/04/10 05:05:23;;;;;;;25.50;15.77;;;5.30;99.90;;;;;;5076147;28;20557;-70
2023/04/10 05:07:48;;;;;;;26.40;16.47;;;5.40;99.90;;;;;;5084996;28;20208;-70
2023/04/10 05:10:14;;;;;;;23.53;15.67;;;5.50;99.90;;;;;;5086013;28;20193;-70
2023/04/10 05:12:41;;;;;;;26.27;17.50;;;5.50;99.90;;;;;;5083939;28;20185;-69
2023/04/10 05:15:08;;;;;;;26.60;18.23;;;5.60;99.90;;;;;;5084306;28;20173;-70
2023/04/10 05:17:33;;;;;;;24.43;16.83;;;5.60;99.90;;;;;;5079550;28;20428;-70
2023/04/10 05:19:59;;;;;;;26.10;16.33;;;5.80;99.90;;;;;;5087818;28;20459;-70
2023/04/10 05:22:26;;;;;;;22.27;15.67;;;5.90;99.90;;;;;;5087232;28;20181;-70
2023/04/10 05:24:53;;;;;;;20.50;14.97;;;5.90;99.90;;;;;;5084940;28;20429;-69
2023/04/10 05:27:19;;;;;;;21.50;15.83;;;6.00;99.90;;;;;;5085134;28;21035;-70
2023/04/10 05:29:45;;;;;;;25.20;15.70;;;6.10;99.90;;;;;;5084412;28;20427;-70
2023/04/10 05:32:10;;;;;;;21.03;14.87;;;6.30;99.90;;;;;;5085138;28;20177;-69
2023/04/10 05:34:36;;;;;;;23.13;14.73;;;6.40;99.90;;;;;;5080511;28;20245;-70
2023/04/10 05:37:01;;;;;;;23.53;14.77;;;6.50;99.90;;;;;;5089246;28;20199;-70
2023/04/10 05:39:27;;;;;;;25.53;15.60;;;6.60;99.90;;;;;;5082939;28;20213;-70
2023/04/10 05:41:52;;;;;;;22.93;15.30;;;6.80;99.90;;;;;;5081093;28;20265;-69
2023/04/10 05:44:18;;;;;;;23.37;13.60;;;7.00;99.90;;;;;;5084408;28;20233;-70
2023/04/10 05:46:44;;;;;;;27.37;14.00;;;7.10;99.90;;;;;;5084237;28;20257;-70
2023/04/10 05:49:09;;;;;;;20.70;13.90;;;7.50;99.90;;;;;;5079368;28;20587;-68
2023/04/10 05:51:35;;;;;;;17.77;11.77;;;8.30;99.90;;;;;;5087917;28;20587;-69
2023/04/10 05:54:00;;;;;;;16.87;11.90;;;8.90;99.90;;;;;;5088737;28;20275;-71
2023/04/10 05:56:26;;;;;;;15.33;12.37;;;9.40;99.90;;;;;;5077188;28;20222;-71
2023/04/10 05:58:51;;;;;;;14.00;11.03;;;10.00;99.90;;;;;;5087860;28;20182;-71
2023/04/10 06:01:17;;;;;;;11.13;9.40;;;10.40;99.90;;;;;;5078081;28;20162;-71
2023/04/10 06:03:43;;;;;;;13.07;10.30;;;10.60;99.90;;;;;;5083557;28;20220;-70
2023/04/10 06:06:08;;;;;;;15.33;9.87;;;11.00;99.90;;;;;;5083768;28;20174;-71
2023/04/10 06:08:34;;;;;;;13.03;9.43;;;11.10;99.90;;;;;;5091437;28;20580;-69
2023/04/10 06:10:59;;;;;;;12.40;9.57;;;12.00;99.90;;;;;;5087444;28;20195;-69
2023/04/10 06:13:26;;;;;;;12.23;10.30;;;12.10;99.90;;;;;;5082077;28;20544;-69
2023/04/10 06:15:51;;;;;;;12.60;10.50;;;12.00;99.90;;;;;;5083424;28;20208;-70
2023/04/10 06:18:17;;;;;;;13.27;9.93;;;12.60;99.90;;;;;;5083518;28;20852;-69
2023/04/10 06:20:43;;;;;;;15.33;9.73;;;12.50;99.90;;;;;;5083215;28;20289;-70
2023/04/10 06:23:09;;;;;;;14.57;10.90;;;13.00;99.90;;;;;;5088581;28;20176;-69
2023/04/10 06:25:34;;;;;;;11.27;10.00;;;13.40;99.90;;;;;;5089152;28;20614;-70
2023/04/10 06:28:00;;;;;;;16.37;11.90;;;14.20;99.90;;;;;;5082690;28;20199;-71
2023/04/10 06:30:26;;;;;;;13.93;10.63;;;14.80;99.90;;;;;;5082907;28;20719;-71
2023/04/10 06:32:51;;;;;;;13.37;10.50;;;15.10;99.90;;;;;;5085190;28;20184;-70
2023/04/10 06:35:17;;;;;;;16.90;12.47;;;14.60;99.90;;;;;;5082960;28;20176;-71
2023/04/10 06:37:42;;;;;;;11.50;10.30;;;15.00;99.90;;;;;;5074129;28;20184;-71
2023/04/10 06:40:10;;;;;;;15.80;10.93;;;15.50;99.90;;;;;;5079613;28;20194;-71
2023/04/10 06:42:36;;;;;;;12.60;11.30;;;14.50;99.90;;;;;;5080987;28;20185;-71
2023/04/10 06:45:02;;;;;;;14.23;11.23;;;14.30;99.90;;;;;;5084621;28;20568;-71
2023/04/10 06:47:29;;;;;;;14.50;12.07;;;14.20;99.90;;;;;;5084609;28;20464;-71
2023/04/10 06:49:54;;;;;;;15.80;12.43;;;14.20;99.90;;;;;;5081670;28;20499;-71
2023/04/10 06:52:20;;;;;;;13.10;11.37;;;15.10;99.90;;;;;;5089901;28;20452;-71
2023/04/10 06:54:46;;;;;;;13.70;11.77;;;14.90;99.90;;;;;;5079447;28;20180;-71
2023/04/10 06:57:11;;;;;;;19.40;11.83;;;14.60;99.90;;;;;;5084932;28;20175;-71
2023/04/10 06:59:37;;;;;;;16.10;13.70;;;13.90;99.90;;;;;;5077177;28;20668;-71
2023/04/10 07:02:03;;;;;;;14.10;12.13;;;14.70;99.90;;;;;;5090833;28;20178;-71
2023/04/10 07:04:29;;;;;;;18.30;12.80;;;14.50;99.90;;;;;;5081748;28;20214;-71
2023/04/10 07:06:55;;;;;;;15.67;12.00;;;15.00;99.90;;;;;;5077473;28;20461;-69
2023/04/10 07:09:20;;;;;;;16.13;13.63;;;15.60;99.90;;;;;;5088823;28;20782;-70
2023/04/10 07:11:47;;;;;;;18.07;13.30;;;15.40;99.90;;;;;;5083309;28;20178;-70
2023/04/10 07:14:12;;;;;;;19.60;13.27;;;15.40;99.90;;;;;;5076841;28;20243;-70
2023/04/10 07:16:38;;;;;;;16.73;13.60;;;14.70;99.90;;;;;;5080640;28;20785;-70
2023/04/10 07:19:03;;;;;;;15.50;13.50;;;15.20;99.90;;;;;;5084994;28;20222;-70
2023/04/10 07:21:29;;;;;;;17.03;14.10;;;15.20;99.90;;;;;;5084159;28;20181;-70
2023/04/10 07:23:55;;;;;;;16.27;14.57;;;15.00;99.90;;;;;;5079938;28;20202;-69
2023/04/10 07:26:20;;;;;;;20.73;16.60;;;14.50;99.90;;;;;;5081738;28;20186;-71
2023/04/10 07:28:46;;;;;;;22.33;17.20;;;14.10;99.90;;;;;;5082963;28;20665;-71
2023/04/10 07:31:16;;;;;;;20.70;17.03;;;14.30;99.90;;;;;;5078749;28;20228;-71
2023/04/10 07:33:42;;;;;;;20.17;16.80;;;14.50;99.90;;;;;;5081668;28;20678;-71
2023/04/10 07:36:07;;;;;;;22.30;17.73;;;14.20;99.90;;;;;;5082367;28;20416;-72
2023/04/10 07:38:33;;;;;;;22.67;18.13;;;14.60;99.90;;;;;;5080199;28;20184;-70
2023/04/10 07:40:59;;;;;;;17.43;14.87;;;15.30;99.90;;;;;;5083912;28;20718;-70
2023/04/10 07:43:25;;;;;;;21.80;17.37;;;16.40;99.90;;;;;;5078865;28;20423;-70
2023/04/10 07:45:51;;;;;;;22.63;16.37;;;16.60;99.90;;;;;;5086371;28;20182;-70
2023/04/10 07:48:17;;;;;;;23.30;17.60;;;16.00;99.90;;;;;;5083068;28;20235;-69
2023/04/10 07:50:42;;;;;;;21.03;17.17;;;16.10;99.90;;;;;;5081810;28;20461;-70
2023/04/10 07:53:08;;;;;;;23.07;16.83;;;16.30;99.90;;;;;;5086386;28;20174;-70
2023/04/10 07:55:42;;;;;;;20.83;17.77;;;15.90;99.90;;;;;;5088780;28;20524;-70
2023/04/10 07:58:07;;;;;;;21.50;16.53;;;16.10;99.90;;;;;;5081862;28;20174;-71
2023/04/10 08:00:33;;;;;;;19.20;16.60;;;16.10;99.90;;;;;;5073904;28;20436;-71
2023/04/10 08:02:59;;;;;;;22.23;16.87;;;16.00;99.90;;;;;;5084764;28;20164;-69
2023/04/10 08:05:25;;;;;;;19.70;17.10;;;16.80;99.90;;;;;;5083831;28;20434;-72
2023/04/10 08:07:51;;;;;;;17.27;15.47;;;17.40;99.90;;;;;;5089867;28;20627;-70
2023/04/10 08:10:16;;;;;;;20.33;16.87;;;17.60;99.90;;;;;;5080781;28;20495;-70
2023/04/10 08:12:42;;;;;;;22.63;18.07;;;16.70;99.90;;;;;;5087781;28;20185;-70
2023/04/10 08:15:08;;;;;;;18.73;16.73;;;17.00;99.90;;;;;;5082846;28;20682;-71
2023/04/10 08:17:33;;;;;;;18.90;16.93;;;17.80;99.90;;;;;;5076299;28;20343;-70
2023/04/10 08:19:59;;;;;;;20.80;17.43;;;17.80;99.90;;;;;;5076842;28;20283;-69
2023/04/10 08:22:25;;;;;;;23.30;19.43;;;17.90;99.90;;;;;;5078155;28;20272;-71
2023/04/10 08:24:50;;;;;;;20.97;17.90;;;16.70;99.90;;;;;;5081821;28;20191;-71
2023/04/10 08:27:16;;;;;;;19.90;16.60;;;16.70;99.90;;;;;;5083916;28;20673;-71
2023/04/10 08:29:45;;;;;;;22.47;18.80;;;17.00;99.90;;;;;;5081243;28;20220;-72
2023/04/10 08:32:10;;;;;;;19.40;17.30;;;17.30;99.90;;;;;;5081703;28;20177;-73
2023/04/10 08:34:36;;;;;;;20.60;16.70;;;18.40;99.90;;;;;;5090704;22;20400;-65
2023/04/10 08:37:11;;;;;;;18.63;16.70;;;18.70;99.90;;;;;;5032612;28;20176;-68
2023/04/10 08:39:37;;;;;;;18.17;16.30;;;18.10;99.90;;;;;;5037766;28;20220;-67
2023/04/10 08:42:02;;;;;;;22.80;17.90;;;18.30;99.90;;;;;;5027307;28;20411;-67
2023/04/10 08:44:28;;;;;;;21.07;17.60;;;18.70;99.90;;;;;;5031483;28;20777;-68
2023/04/10 08:46:59;;;;;;;21.53;16.87;;;18.90;99.90;;;;;;5016957;28;20207;-67
2023/04/10 08:49:43;;;;;;;23.03;18.77;;;17.30;99.90;;;;;;5018416;28;20411;-67
2023/04/10 08:52:15;;;;;;;19.77;15.40;;;17.70;99.90;;;;;;5017868;28;20410;-67
2023/04/10 08:54:45;;;;;;;18.90;15.70;;;18.40;99.90;;;;;;5013590;28;20418;-67
2023/04/10 08:57:19;;;;;;;18.00;15.60;;;18.20;99.90;;;;;;5017322;28;20986;-66
2023/04/10 08:59:45;;;;;;;20.87;16.67;;;17.90;99.90;;;;;;5021864;28;20420;-66
2023/04/10 09:02:11;;;;;;;18.80;15.70;;;18.10;99.90;;;;;;5015420;28;20414;-68
2023/04/10 09:04:37;;;;;;;17.90;15.17;;;17.60;99.90;;;;;;5020923;28;20406;-68
2023/04/10 09:07:02;;;;;;;19.03;15.80;;;17.80;99.90;;;;;;5013447;28;20677;-68
2023/04/10 09:09:31;;;;;;;21.57;15.73;;;17.80;99.90;;;;;;5013531;28;20179;-68
2023/04/10 09:12:02;;;;;;;17.20;15.50;;;17.60;99.90;;;;;;5013487;28;20170;-69
2023/04/10 09:14:30;;;;;;;23.10;17.20;;;17.50;99.90;;;;;;5015577;28;20454;-68
2023/04/10 09:17:18;;;;;;;20.97;17.40;;;17.90;99.90;;;;;;5013459;28;20508;-68
2023/04/10 09:19:51;;;;;;;17.67;15.77;;;17.60;99.90;;;;;;5012972;28;20473;-67
2023/04/10 09:22:27;;;;;;;24.50;16.97;;;17.90;99.90;;;;;;5013689;28;20922;-68
2023/04/10 09:24:53;;;;;;;19.40;15.20;;;19.90;99.90;;;;;;5013172;28;20476;-68
2023/04/10 09:27:37;;;;;;;18.67;15.10;;;20.20;99.90;;;;;;5013209;28;20538;-68
2023/04/10 09:30:05;;;;;;;16.03;11.70;;;20.40;99.90;;;;;;5007256;28;20174;-68
2023/04/10 09:32:45;;;;;;;15.40;12.63;;;20.10;99.90;;;;;;5013190;28;20409;-68
2023/04/10 09:35:16;;;;;;;17.27;12.50;;;19.60;99.90;;;;;;5007843;28;20443;-68
2023/04/10 09:37:44;;;;;;;13.20;11.50;;;20.00;99.90;;;;;;5014141;28;20455;-68
2023/04/10 09:40:24;;;;;;;16.47;12.83;;;19.30;99.90;;;;;;5018967;28;20411;-68
2023/04/10 09:42:50;;;;;;;18.80;13.67;;;17.70;99.90;;;;;;5011937;28;20418;-68
2023/04/10 09:45:18;;;;;;;15.43;12.90;;;17.90;99.90;;;;;;5008455;28;20848;-68
2023/04/10 09:48:03;;;;;;;15.43;11.03;;;18.40;99.90;;;;;;5012609;28;20453;-67
2023/04/10 09:50:37;;;;;;;15.57;11.53;;;19.30;99.90;;;;;;5010265;28;20997;-68
2023/04/10 09:53:03;;;;;;;15.63;11.67;;;19.50;99.90;;;;;;5012952;28;20405;-69
2023/04/10 09:55:29;;;;;;;15.10;12.47;;;18.00;99.90;;;;;;5020297;28;20433;-67
2023/04/10 09:57:57;;;;;;;15.67;12.80;;;17.60;99.90;;;;;;5011390;28;20172;-68
2023/04/10 10:00:24;;;;;;;18.57;12.27;;;17.60;99.90;;;;;;5012302;28;20419;-67
2023/04/10 10:02:51;;;;;;;14.70;11.70;;;17.20;99.90;;;;;;5019313;28;20500;-67
2023/04/10 10:05:17;;;;;;;15.07;11.70;;;17.60;99.90;;;;;;5013083;28;20430;-67
2023/04/10 10:07:44;;;;;;;15.10;11.03;;;17.10;99.90;;;;;;5017954;28;20473;-67
2023/04/10 10:10:11;;;;;;;16.07;11.80;;;16.80;99.90;;;;;;5012292;28;20422;-67
2023/04/10 10:12:42;;;;;;;15.13;10.70;;;16.70;99.90;;;;;;5012301;28;20407;-68
2023/04/10 10:15:26;;;;;;;21.63;12.37;;;16.80;99.90;;;;;;5019579;28;20468;-67
2023/04/10 10:18:03;;;;;;;18.43;12.30;;;17.00;99.90;;;;;;5004509;28;20435;-67
2023/04/10 10:20:31;;;;;;;16.40;12.10;;;16.40;99.90;;;;;;5012082;28;20770;-67
2023/04/10 10:22:57;;;;;;;14.90;11.63;;;16.40;99.90;;;;;;5012191;28;20414;-68
2023/04/10 10:25:24;;;;;;;14.10;10.20;;;16.40;99.90;;;;;;5012147;28;20529;-67
2023/04/10 10:27:52;;;;;;;16.43;10.30;;;16.70;99.90;;;;;;5012351;28;20457;-67
2023/04/10 10:30:19;;;;;;;15.60;10.93;;;16.80;99.90;;;;;;5012374;28;20430;-68
2023/04/10 10:32:45;;;;;;;17.73;11.30;;;16.80;99.90;;;;;;5013952;28;20784;-68
2023/04/10 10:35:11;;;;;;;18.07;12.63;;;16.70;99.90;;;;;;5011860;28;20450;-68
2023/04/10 10:37:38;;;;;;;16.70;11.30;;;16.50;99.90;;;;;;5025819;28;20410;-68
2023/04/10 10:40:16;;;;;;;14.70;11.40;;;16.80;99.90;;;;;;5012121;28;20492;-68
2023/04/10 10:42:52;;;;;;;15.27;10.47;;;16.70;99.90;;;;;;5018064;28;20432;-68
2023/04/10 10:45:24;;;;;;;12.77;10.27;;;16.40;99.90;;;;;;5007844;28;20771;-67
2023/04/10 10:47:53;;;;;;;15.53;10.57;;;16.60;99.90;;;;;;5005200;28;20439;-67
2023/04/10 10:50:19;;;;;;;13.80;9.50;;;16.70;99.90;;;;;;5017174;28;20804;-68
2023/04/10 10:52:48;;;;;;;13.47;10.03;;;16.40;99.90;;;;;;5012238;28;20416;-68
2023/04/10 10:55:34;;;;;;;14.87;10.57;;;16.40;99.90;;;;;;5018213;28;20668;-68
2023/04/10 10:58:10;;;;;;;14.20;9.33;;;16.50;99.90;;;;;;5004922;28;20401;-68
2023/04/10 11:00:50;;;;;;;12.03;9.60;;;16.80;99.90;;;;;;5013369;28;20408;-68
2023/04/10 11:03:16;;;;;;;10.37;8.13;;;16.50;99.90;;;;;;5011354;28;20419;-69
2023/04/10 11:05:51;;;;;;;12.50;8.87;;;16.40;99.90;;;;;;5011470;28;20442;-68
2023/04/10 11:08:39;;;;;;;12.17;8.07;;;16.10;99.90;;;;;;5017567;28;20308;-68
2023/04/10 11:11:06;;;;;;;10.03;7.97;;;16.30;99.90;;;;;;5006101;28;20421;-68
2023/04/10 11:13:39;;;;;;;11.67;8.80;;;16.40;99.90;;;;;;5016566;28;20419;-68
2023/04/10 11:16:06;;;;;;;9.30;7.50;;;16.50;99.90;;;;;;5011592;28;20934;-66
2023/04/10 11:18:47;;;;;;;10.00;6.87;;;16.30;99.90;;;;;;5011541;28;20409;-68
2023/04/10 11:21:16;;;;;;;11.90;7.77;;;16.50;99.90;;;;;;5006666;28;20428;-68
2023/04/10 11:23:54;;;;;;;9.67;6.50;;;16.60;99.90;;;;;;5011123;28;20420;-68
2023/04/10 11:26:40;;;;;;;8.77;6.00;;;16.20;99.90;;;;;;5011446;28;20483;-68
2023/04/10 11:29:35;;;;;;;7.23;6.13;;;16.30;99.90;;;;;;5010927;28;21159;-67
2023/04/10 11:32:04;;;;;;;6.80;5.47;;;16.60;99.90;;;;;;5004930;28;20468;-69
2023/04/10 11:34:31;;;;;;;8.13;7.07;;;16.20;99.90;;;;;;5015110;28;20398;-68
2023/04/10 11:37:00;;;;;;;7.00;6.30;;;16.50;99.90;;;;;;5018457;28;20404;-67
2023/04/10 11:39:26;;;;;;;9.07;5.97;;;16.60;99.90;;;;;;5011206;28;20421;-68
2023/04/10 11:41:54;;;;;;;9.93;9.03;;;16.80;99.90;;;;;;5011576;28;20487;-68
2023/04/10 11:44:30;;;;;;;10.33;6.40;;;17.00;99.90;;;;;;5011013;28;21005;-68
2023/04/10 11:46:56;;;;;;;9.37;7.03;;;17.30;99.90;;;;;;5011165;28;20737;-67
2023/04/10 11:49:40;;;;;;;9.10;7.00;;;17.20;99.90;;;;;;5011433;28;20483;-68
2023/04/10 11:52:06;;;;;;;10.00;6.83;;;17.20;99.90;;;;;;5005605;28;20406;-68
2023/04/10 11:54:31;;;;;;;9.77;6.07;;;16.90;99.90;;;;;;5013913;28;20414;-68
2023/04/10 11:57:01;;;;;;;7.80;5.80;;;16.90;99.90;;;;;;5016174;28;20634;-69
2023/04/10 11:59:28;;;;;;;9.90;6.70;;;17.00;99.90;;;;;;5011031;28;20214;-68
2023/04/10 12:02:07;;;;;;;9.33;7.13;;;17.10;99.90;;;;;;5011382;28;20407;-67
2023/04/10 12:04:33;;;;;;;7.90;6.37;;;17.10;99.90;;;;;;5011293;28;20697;-69
2023/04/10 12:06:59;;;;;;;6.10;5.50;;;16.90;99.90;;;;;;5010889;28;20420;-68
2023/04/10 12:09:25;;;;;;;7.23;6.20;;;16.70;99.90;;;;;;5011734;28;20425;-68
2023/04/10 12:11:52;;;;;;;8.27;6.00;;;16.70;99.90;;;;;;5018312;28;20440;-68
2023/04/10 12:14:22;;;;;;;7.73;6.93;;;16.60;99.90;;;;;;5019000;28;20417;-68
2023/04/10 12:16:50;;;;;;;11.03;6.70;;;16.30;99.90;;;;;;5008513;28;20429;-68
2023/04/10 12:19:16;;;;;;;8.00;6.30;;;16.50;99.90;;;;;;5019154;28;20415;-70
2023/04/10 12:21:43;;;;;;;7.80;6.03;;;16.60;99.90;;;;;;5014601;28;20428;-68
2023/04/10 12:24:09;;;;;;;7.00;6.10;;;16.60;99.90;;;;;;5018526;28;20413;-67
2023/04/10 12:26:35;;;;;;;7.77;5.70;;;16.70;99.90;;;;;;5016080;28;20842;-68
2023/04/10 12:29:02;;;;;;;8.37;6.43;;;16.90;99.90;;;;;;5014390;28;20468;-68
2023/04/10 12:31:33;;;;;;;7.80;5.90;;;17.00;99.90;;;;;;5014717;28;20916;-67
2023/04/10 12:34:00;;;;;;;8.37;6.63;;;16.70;99.90;;;;;;5017151;28;20413;-67
2023/04/10 12:36:30;;;;;;;7.73;4.87;;;16.80;99.90;;;;;;5017065;28;20512;-66
2023/04/10 12:38:58;;;;;;;5.83;4.90;;;16.90;99.90;;;;;;5015102;28;20824;-68